Terminal Aerodrome Forecast
Issued by NWS Denver/Boulder, CO

Home | Current Version | Previous Version | Text Only | Print | Product List | Glossary On
Versions: 1 2 3 4 5 6 7 8 9 10 11 12 13 14 15 16 17 18 19 20 21 22 23 24 25 26 27 28 29 30 31 32 33 34 35 36 37 38 39
000
FTUS45 KBOU 221738
TAFDEN
TAF
KDEN 221738Z 2218/2324 08005KT P6SM BKN015 BKN140
     FM221900 08007KT P6SM SCT015 SCT140
     FM222300 09012G18KT P6SM VCTS SCT080CB BKN120
     FM230200 13010KT P6SM FEW080 BKN120
     FM230500 16008KT P6SM FEW100 SCT160
     FM231400 16014KT P6SM SCT120 SCT180
     FM232000 20018KT P6SM SCT100 BKN160=

USA.gov is the U.S. government's official web portal to all federal, state and local government web resources and services.